sensor_id;sensor_type;location;lat;lon;timestamp;pressure;altitude;pressure_sealevel;temperature;humidity
12213;BME280;6169;44.158;22.788;2023-04-02T00:04:37;99990.22;;;14.68;48.41
12213;BME280;6169;44.158;22.788;2023-04-02T00:09:41;99980.59;;;14.06;49.48
12213;BME280;6169;44.158;22.788;2023-04-02T00:14:51;99987.16;;;13.94;49.75
12213;BME280;6169;44.158;22.788;2023-04-02T00:19:56;99989.06;;;14.09;48.67
12213;BME280;6169;44.158;22.788;2023-04-02T00:25:06;99988.53;;;14.02;48.70
12213;BME280;6169;44.158;22.788;2023-04-02T00:30:11;99992.38;;;13.91;49.22
12213;BME280;6169;44.158;22.788;2023-04-02T00:35:18;99988.84;;;13.85;48.68
12213;BME280;6169;44.158;22.788;2023-04-02T00:40:25;99986.91;;;13.50;49.38
12213;BME280;6169;44.158;22.788;2023-04-02T00:45:30;99980.13;;;13.17;50.91
12213;BME280;6169;44.158;22.788;2023-04-02T00:50:34;99991.00;;;13.52;49.36
12213;BME280;6169;44.158;22.788;2023-04-02T00:55:42;99993.47;;;13.23;50.43
12213;BME280;6169;44.158;22.788;2023-04-02T01:00:48;99988.81;;;12.98;50.65
12213;BME280;6169;44.158;22.788;2023-04-02T01:05:55;99996.69;;;12.89;49.91
12213;BME280;6169;44.158;22.788;2023-04-02T01:11:09;99994.00;;;13.00;49.29
12213;BME280;6169;44.158;22.788;2023-04-02T01:16:21;100011.72;;;12.92;49.08
12213;BME280;6169;44.158;22.788;2023-04-02T01:21:34;100008.94;;;12.82;49.14
12213;BME280;6169;44.158;22.788;2023-04-02T01:26:48;100000.72;;;12.66;49.64
12213;BME280;6169;44.158;22.788;2023-04-02T01:31:57;100017.72;;;13.04;48.64
12213;BME280;6169;44.158;22.788;2023-04-02T01:37:11;100015.59;;;13.37;46.90
12213;BME280;6169;44.158;22.788;2023-04-02T01:42:22;100021.31;;;13.41;46.71
12213;BME280;6169;44.158;22.788;2023-04-02T01:47:28;100029.22;;;13.27;46.71
12213;BME280;6169;44.158;22.788;2023-04-02T01:52:36;100032.78;;;13.17;46.26
12213;BME280;6169;44.158;22.788;2023-04-02T01:57:41;100029.53;;;13.46;45.55
12213;BME280;6169;44.158;22.788;2023-04-02T02:02:48;100026.97;;;12.83;47.66
12213;BME280;6169;44.158;22.788;2023-04-02T02:07:51;100027.25;;;12.29;49.23
12213;BME280;6169;44.158;22.788;2023-04-02T02:12:58;100023.34;;;12.09;49.72
12213;BME280;6169;44.158;22.788;2023-04-02T02:18:03;100025.44;;;11.97;49.99
12213;BME280;6169;44.158;22.788;2023-04-02T02:23:06;100032.22;;;11.94;50.37
12213;BME280;6169;44.158;22.788;2023-04-02T02:28:16;100032.81;;;11.64;50.46
12213;BME280;6169;44.158;22.788;2023-04-02T02:33:22;100031.94;;;11.91;50.04
12213;BME280;6169;44.158;22.788;2023-04-02T02:38:40;100036.44;;;12.17;49.44
12213;BME280;6169;44.158;22.788;2023-04-02T02:43:50;100039.22;;;11.80;49.87
12213;BME280;6169;44.158;22.788;2023-04-02T02:48:56;100028.91;;;11.87;49.25
12213;BME280;6169;44.158;22.788;2023-04-02T02:54:02;100039.34;;;12.00;49.56
12213;BME280;6169;44.158;22.788;2023-04-02T02:59:07;100029.28;;;12.06;49.62
12213;BME280;6169;44.158;22.788;2023-04-02T03:04:12;100033.00;;;12.32;48.19
12213;BME280;6169;44.158;22.788;2023-04-02T03:09:22;100031.31;;;12.21;48.13
12213;BME280;6169;44.158;22.788;2023-04-02T03:14:32;100036.34;;;12.50;47.40
12213;BME280;6169;44.158;22.788;2023-04-02T03:19:42;100033.16;;;12.63;46.35
12213;BME280;6169;44.158;22.788;2023-04-02T03:24:51;100044.00;;;12.05;48.25
12213;BME280;6169;44.158;22.788;2023-04-02T03:30:04;100047.16;;;11.87;48.75
12213;BME280;6169;44.158;22.788;2023-04-02T03:35:18;100043.13;;;11.62;49.49
12213;BME280;6169;44.158;22.788;2023-04-02T03:40:25;100044.81;;;11.68;49.44
12213;BME280;6169;44.158;22.788;2023-04-02T03:45:34;100045.03;;;11.94;48.51
12213;BME280;6169;44.158;22.788;2023-04-02T03:50:43;100041.13;;;11.79;49.42
12213;BME280;6169;44.158;22.788;2023-04-02T03:55:47;100044.25;;;12.46;47.71
12213;BME280;6169;44.158;22.788;2023-04-02T04:00:53;100052.88;;;12.28;48.05
12213;BME280;6169;44.158;22.788;2023-04-02T04:06:03;100049.09;;;12.91;46.48
12213;BME280;6169;44.158;22.788;2023-04-02T04:11:08;100059.78;;;12.03;48.49
12213;BME280;6169;44.158;22.788;2023-04-02T04:16:15;100072.19;;;11.84;49.47
12213;BME280;6169;44.158;22.788;2023-04-02T04:21:22;100090.00;;;11.69;49.95
12213;BME280;6169;44.158;22.788;2023-04-02T04:26:37;100068.13;;;11.86;49.14
12213;BME280;6169;44.158;22.788;2023-04-02T04:31:44;100085.78;;;12.16;48.38
12213;BME280;6169;44.158;22.788;2023-04-02T04:36:53;100084.16;;;12.73;46.10
12213;BME280;6169;44.158;22.788;2023-04-02T04:42:02;100091.72;;;12.55;46.98
12213;BME280;6169;44.158;22.788;2023-04-02T04:47:09;100101.19;;;12.37;47.09
12213;BME280;6169;44.158;22.788;2023-04-02T04:52:18;100092.22;;;12.05;48.10
12213;BME280;6169;44.158;22.788;2023-04-02T04:57:28;100099.84;;;11.43;49.85
12213;BME280;6169;44.158;22.788;2023-04-02T05:02:37;100095.66;;;11.63;50.19
12213;BME280;6169;44.158;22.788;2023-04-02T05:07:48;100102.38;;;12.14;49.19
12213;BME280;6169;44.158;22.788;2023-04-02T05:12:55;100099.00;;;12.39;48.97
12213;BME280;6169;44.158;22.788;2023-04-02T05:18:11;100117.28;;;12.44;49.76
12213;BME280;6169;44.158;22.788;2023-04-02T05:23:22;100107.09;;;12.72;48.92
12213;BME280;6169;44.158;22.788;2023-04-02T05:28:32;100115.66;;;12.96;48.92
12213;BME280;6169;44.158;22.788;2023-04-02T05:33:38;100131.56;;;13.14;48.32
12213;BME280;6169;44.158;22.788;2023-04-02T05:38:45;100128.44;;;13.99;46.13
12213;BME280;6169;44.158;22.788;2023-04-02T05:43:50;100131.94;;;13.58;49.15
12213;BME280;6169;44.158;22.788;2023-04-02T05:48:57;100134.44;;;13.86;47.94
12213;BME280;6169;44.158;22.788;2023-04-02T05:54:04;100136.94;;;13.92;49.05
12213;BME280;6169;44.158;22.788;2023-04-02T05:59:12;100135.81;;;14.14;49.30
12213;BME280;6169;44.158;22.788;2023-04-02T06:04:21;100131.19;;;14.09;49.69
12213;BME280;6169;44.158;22.788;2023-04-02T06:09:33;100140.19;;;14.10;49.54
12213;BME280;6169;44.158;22.788;2023-04-02T06:14:39;100144.31;;;15.18;46.33
12213;BME280;6169;44.158;22.788;2023-04-02T06:19:41;100153.50;;;14.83;46.22
12213;BME280;6169;44.158;22.788;2023-04-02T06:24:46;100154.63;;;14.77;45.14
12213;BME280;6169;44.158;22.788;2023-04-02T06:29:54;100158.66;;;14.95;44.61
12213;BME280;6169;44.158;22.788;2023-04-02T06:34:58;100165.94;;;15.74;43.78
12213;BME280;6169;44.158;22.788;2023-04-02T06:40:03;100164.06;;;16.04;43.57
12213;BME280;6169;44.158;22.788;2023-04-02T06:45:23;100163.38;;;15.88;43.21
12213;BME280;6169;44.158;22.788;2023-04-02T06:50:30;100160.38;;;16.19;42.99
12213;BME280;6169;44.158;22.788;2023-04-02T06:55:41;100168.13;;;16.46;41.70
12213;BME280;6169;44.158;22.788;2023-04-02T07:00:44;100185.53;;;16.60;41.12
12213;BME280;6169;44.158;22.788;2023-04-02T07:05:47;100169.78;;;16.42;40.94
12213;BME280;6169;44.158;22.788;2023-04-02T07:10:51;100168.84;;;16.81;39.92
12213;BME280;6169;44.158;22.788;2023-04-02T07:15:54;100177.78;;;16.67;39.24
12213;BME280;6169;44.158;22.788;2023-04-02T07:20:56;100184.00;;;17.02;38.44
12213;BME280;6169;44.158;22.788;2023-04-02T07:26:00;100170.75;;;17.04;39.05
12213;BME280;6169;44.158;22.788;2023-04-02T07:31:02;100177.84;;;16.86;38.74
12213;BME280;6169;44.158;22.788;2023-04-02T07:41:08;100180.38;;;18.07;38.38
12213;BME280;6169;44.158;22.788;2023-04-02T07:46:11;100178.13;;;18.41;37.25
12213;BME280;6169;44.158;22.788;2023-04-02T07:51:17;100177.16;;;18.18;36.13
12213;BME280;6169;44.158;22.788;2023-04-02T07:56:23;100188.97;;;18.19;36.18
12213;BME280;6169;44.158;22.788;2023-04-02T08:01:26;100189.91;;;18.61;34.73
12213;BME280;6169;44.158;22.788;2023-04-02T08:06:29;100179.75;;;18.75;35.23
12213;BME280;6169;44.158;22.788;2023-04-02T08:11:32;100177.91;;;18.84;36.34
12213;BME280;6169;44.158;22.788;2023-04-02T08:16:45;100180.66;;;18.84;34.93
12213;BME280;6169;44.158;22.788;2023-04-02T08:21:48;100187.41;;;19.06;33.63
12213;BME280;6169;44.158;22.788;2023-04-02T08:26:53;100186.28;;;18.79;35.08
12213;BME280;6169;44.158;22.788;2023-04-02T08:31:55;100180.56;;;19.31;33.08
12213;BME280;6169;44.158;22.788;2023-04-02T08:36:57;100183.03;;;19.05;34.20
12213;BME280;6169;44.158;22.788;2023-04-02T08:42:05;100200.38;;;19.33;33.20
12213;BME280;6169;44.158;22.788;2023-04-02T08:47:08;100198.53;;;19.28;34.48
12213;BME280;6169;44.158;22.788;2023-04-02T08:52:21;100191.94;;;19.66;32.79
12213;BME280;6169;44.158;22.788;2023-04-02T08:57:34;100198.44;;;19.83;31.69
12213;BME280;6169;44.158;22.788;2023-04-02T09:02:42;100191.75;;;19.62;32.60
12213;BME280;6169;44.158;22.788;2023-04-02T09:07:48;100197.66;;;20.28;31.14
12213;BME280;6169;44.158;22.788;2023-04-02T09:12:53;100190.19;;;20.06;30.99
12213;BME280;6169;44.158;22.788;2023-04-02T09:18:05;100186.38;;;20.16;32.47
12213;BME280;6169;44.158;22.788;2023-04-02T09:23:17;100188.22;;;20.20;31.19
12213;BME280;6169;44.158;22.788;2023-04-02T09:28:22;100184.69;;;21.39;30.86
12213;BME280;6169;44.158;22.788;2023-04-02T09:33:41;100187.69;;;20.72;30.61
12213;BME280;6169;44.158;22.788;2023-04-02T09:38:56;100185.22;;;20.70;30.79
12213;BME280;6169;44.158;22.788;2023-04-02T09:44:18;100179.75;;;21.10;29.56
12213;BME280;6169;44.158;22.788;2023-04-02T09:49:26;100183.56;;;20.92;29.47
12213;BME280;6169;44.158;22.788;2023-04-02T09:54:29;100178.00;;;20.83;29.03
12213;BME280;6169;44.158;22.788;2023-04-02T09:59:32;100188.38;;;21.26;28.37
12213;BME280;6169;44.158;22.788;2023-04-02T10:04:38;100186.84;;;20.94;26.95
12213;BME280;6169;44.158;22.788;2023-04-02T10:09:43;100207.00;;;21.03;27.93
12213;BME280;6169;44.158;22.788;2023-04-02T10:14:48;100189.50;;;21.16;27.19
12213;BME280;6169;44.158;22.788;2023-04-02T10:19:54;100190.50;;;21.38;26.43
12213;BME280;6169;44.158;22.788;2023-04-02T10:24:58;100186.28;;;21.41;27.57
12213;BME280;6169;44.158;22.788;2023-04-02T10:30:15;100187.31;;;22.14;28.41
12213;BME280;6169;44.158;22.788;2023-04-02T10:35:31;100180.16;;;22.31;27.75
12213;BME280;6169;44.158;22.788;2023-04-02T10:40:38;100185.56;;;22.18;27.05
12213;BME280;6169;44.158;22.788;2023-04-02T10:45:47;100185.06;;;21.99;27.31
12213;BME280;6169;44.158;22.788;2023-04-02T10:50:54;100187.16;;;21.01;27.83
12213;BME280;6169;44.158;22.788;2023-04-02T10:56:02;100168.59;;;22.11;27.49
12213;BME280;6169;44.158;22.788;2023-04-02T11:01:14;100171.09;;;21.78;27.43
12213;BME280;6169;44.158;22.788;2023-04-02T11:06:19;100168.06;;;23.00;27.15
12213;BME280;6169;44.158;22.788;2023-04-02T11:11:26;100174.72;;;21.30;27.26
12213;BME280;6169;44.158;22.788;2023-04-02T11:16:32;100159.47;;;22.11;27.29
12213;BME280;6169;44.158;22.788;2023-04-02T11:21:38;100167.06;;;22.57;28.94
12213;BME280;6169;44.158;22.788;2023-04-02T11:26:42;100171.19;;;22.89;26.16
12213;BME280;6169;44.158;22.788;2023-04-02T11:31:50;100162.03;;;22.98;25.59
12213;BME280;6169;44.158;22.788;2023-04-02T11:37:08;100161.75;;;22.90;25.83
12213;BME280;6169;44.158;22.788;2023-04-02T11:42:26;100157.22;;;22.13;26.36
12213;BME280;6169;44.158;22.788;2023-04-02T11:47:30;100144.41;;;23.53;25.31
12213;BME280;6169;44.158;22.788;2023-04-02T11:52:35;100150.03;;;22.76;26.77
12213;BME280;6169;44.158;22.788;2023-04-02T12:09:16;100142.81;;;23.22;25.20
12213;BME280;6169;44.158;22.788;2023-04-02T12:14:42;100142.31;;;23.20;25.41
12213;BME280;6169;44.158;22.788;2023-04-02T12:19:48;100146.09;;;23.15;24.75
12213;BME280;6169;44.158;22.788;2023-04-02T12:24:56;100131.50;;;22.68;25.05
12213;BME280;6169;44.158;22.788;2023-04-02T12:30:11;100130.28;;;22.39;25.70
12213;BME280;6169;44.158;22.788;2023-04-02T12:35:26;100136.69;;;23.79;25.30
12213;BME280;6169;44.158;22.788;2023-04-02T12:40:30;100128.69;;;22.77;24.08
12213;BME280;6169;44.158;22.788;2023-04-02T12:45:33;100131.06;;;22.57;25.37
12213;BME280;6169;44.158;22.788;2023-04-02T12:50:38;100122.97;;;22.82;25.15
12213;BME280;6169;44.158;22.788;2023-04-02T12:55:45;100126.78;;;23.28;25.05
12213;BME280;6169;44.158;22.788;2023-04-02T13:00:48;100125.50;;;22.57;25.20
12213;BME280;6169;44.158;22.788;2023-04-02T13:05:53;100133.28;;;22.08;24.99
12213;BME280;6169;44.158;22.788;2023-04-02T13:10:58;100145.34;;;22.03;26.18
12213;BME280;6169;44.158;22.788;2023-04-02T13:16:05;100142.72;;;22.80;24.73
12213;BME280;6169;44.158;22.788;2023-04-02T13:21:23;100143.66;;;22.76;25.41
12213;BME280;6169;44.158;22.788;2023-04-02T13:26:28;100144.00;;;22.83;26.34
12213;BME280;6169;44.158;22.788;2023-04-02T13:31:31;100149.41;;;23.09;24.57
12213;BME280;6169;44.158;22.788;2023-04-02T13:36:34;100155.09;;;22.27;25.27
12213;BME280;6169;44.158;22.788;2023-04-02T13:41:40;100163.09;;;21.85;25.85
12213;BME280;6169;44.158;22.788;2023-04-02T13:46:43;100175.28;;;21.58;26.67
12213;BME280;6169;44.158;22.788;2023-04-02T13:51:47;100166.81;;;21.72;26.07
12213;BME280;6169;44.158;22.788;2023-04-02T13:56:51;100168.47;;;21.90;26.36
12213;BME280;6169;44.158;22.788;2023-04-02T14:01:56;100161.94;;;21.86;26.13
12213;BME280;6169;44.158;22.788;2023-04-02T14:07:25;100161.59;;;22.05;26.60
12213;BME280;6169;44.158;22.788;2023-04-02T14:12:43;100170.44;;;21.72;28.07
12213;BME280;6169;44.158;22.788;2023-04-02T14:18:01;100167.94;;;20.87;27.25
12213;BME280;6169;44.158;22.788;2023-04-02T14:23:24;100184.63;;;21.13;26.95
12213;BME280;6169;44.158;22.788;2023-04-02T14:28:40;100184.13;;;21.20;26.66
12213;BME280;6169;44.158;22.788;2023-04-02T14:33:51;100175.75;;;20.85;27.55
12213;BME280;6169;44.158;22.788;2023-04-02T14:39:02;100170.00;;;20.82;27.54
12213;BME280;6169;44.158;22.788;2023-04-02T14:44:10;100183.09;;;20.67;27.86
12213;BME280;6169;44.158;22.788;2023-04-02T14:49:21;100182.25;;;20.89;28.15
12213;BME280;6169;44.158;22.788;2023-04-02T14:54:30;100196.69;;;20.55;29.06
12213;BME280;6169;44.158;22.788;2023-04-02T14:59:40;100201.78;;;20.70;29.60
12213;BME280;6169;44.158;22.788;2023-04-02T15:04:51;100203.31;;;20.45;29.46
12213;BME280;6169;44.158;22.788;2023-04-02T15:10:00;100210.63;;;20.27;29.55
12213;BME280;6169;44.158;22.788;2023-04-02T15:15:17;100217.50;;;20.84;30.38
12213;BME280;6169;44.158;22.788;2023-04-02T15:20:21;100211.72;;;20.71;30.00
12213;BME280;6169;44.158;22.788;2023-04-02T15:25:30;100214.75;;;20.92;30.28
12213;BME280;6169;44.158;22.788;2023-04-02T15:30:37;100211.91;;;20.75;30.08
12213;BME280;6169;44.158;22.788;2023-04-02T15:35:43;100208.38;;;21.32;29.06
12213;BME280;6169;44.158;22.788;2023-04-02T15:40:53;100221.44;;;20.15;28.78
12213;BME280;6169;44.158;22.788;2023-04-02T15:46:15;100213.53;;;20.22;29.15
12213;BME280;6169;44.158;22.788;2023-04-02T15:51:28;100221.19;;;19.25;28.89
12213;BME280;6169;44.158;22.788;2023-04-02T15:56:42;100216.63;;;20.21;29.61
12213;BME280;6169;44.158;22.788;2023-04-02T16:01:55;100229.66;;;19.93;29.88
12213;BME280;6169;44.158;22.788;2023-04-02T16:07:18;100230.56;;;20.02;29.95
12213;BME280;6169;44.158;22.788;2023-04-02T16:12:22;100229.03;;;19.59;30.74
12213;BME280;6169;44.158;22.788;2023-04-02T16:17:32;100228.47;;;20.21;30.34
12213;BME280;6169;44.158;22.788;2023-04-02T16:22:38;100233.03;;;19.53;31.41
12213;BME280;6169;44.158;22.788;2023-04-02T16:27:44;100243.56;;;19.88;31.14
12213;BME280;6169;44.158;22.788;2023-04-02T16:33:01;100250.72;;;19.89;31.77
12213;BME280;6169;44.158;22.788;2023-04-02T16:38:15;100242.19;;;19.07;32.03
12213;BME280;6169;44.158;22.788;2023-04-02T16:43:25;100247.59;;;19.12;32.17
12213;BME280;6169;44.158;22.788;2023-04-02T16:48:39;100256.56;;;18.58;33.32
12213;BME280;6169;44.158;22.788;2023-04-02T16:53:50;100246.84;;;18.46;33.44
12213;BME280;6169;44.158;22.788;2023-04-02T16:59:03;100267.34;;;18.40;33.83
12213;BME280;6169;44.158;22.788;2023-04-02T17:04:20;100268.28;;;18.31;33.25
12213;BME280;6169;44.158;22.788;2023-04-02T17:09:34;100275.38;;;17.32;35.41
12213;BME280;6169;44.158;22.788;2023-04-02T17:14:42;100281.97;;;18.36;34.20
12213;BME280;6169;44.158;22.788;2023-04-02T17:19:50;100288.75;;;18.24;34.44
12213;BME280;6169;44.158;22.788;2023-04-02T17:24:56;100296.97;;;17.87;35.09
12213;BME280;6169;44.158;22.788;2023-04-02T17:30:03;100300.53;;;17.87;34.99
12213;BME280;6169;44.158;22.788;2023-04-02T17:35:25;100295.44;;;18.18;33.99
12213;BME280;6169;44.158;22.788;2023-04-02T17:40:37;100300.81;;;16.89;35.95
12213;BME280;6169;44.158;22.788;2023-04-02T17:45:46;100311.56;;;16.52;37.57
12213;BME280;6169;44.158;22.788;2023-04-02T17:51:05;100331.09;;;16.40;38.30
12213;BME280;6169;44.158;22.788;2023-04-02T17:56:28;100332.44;;;16.47;38.01
12213;BME280;6169;44.158;22.788;2023-04-02T18:01:37;100329.47;;;16.34;37.85
12213;BME280;6169;44.158;22.788;2023-04-02T18:06:54;100326.09;;;16.52;37.93
12213;BME280;6169;44.158;22.788;2023-04-02T18:12:07;100332.16;;;15.99;39.07
12213;BME280;6169;44.158;22.788;2023-04-02T18:17:20;100339.09;;;15.87;39.57
12213;BME280;6169;44.158;22.788;2023-04-02T18:22:32;100345.53;;;16.56;38.32
12213;BME280;6169;44.158;22.788;2023-04-02T18:27:49;100353.16;;;16.19;39.44
12213;BME280;6169;44.158;22.788;2023-04-02T18:33:05;100352.22;;;15.90;40.46
12213;BME280;6169;44.158;22.788;2023-04-02T18:38:21;100376.13;;;16.39;39.62
12213;BME280;6169;44.158;22.788;2023-04-02T18:43:31;100370.84;;;15.98;40.49
12213;BME280;6169;44.158;22.788;2023-04-02T18:48:43;100387.09;;;15.74;41.04
12213;BME280;6169;44.158;22.788;2023-04-02T18:53:50;100390.84;;;15.98;40.68
12213;BME280;6169;44.158;22.788;2023-04-02T18:58:57;100394.25;;;15.70;41.38
12213;BME280;6169;44.158;22.788;2023-04-02T19:04:05;100410.94;;;15.73;41.02
12213;BME280;6169;44.158;22.788;2023-04-02T19:09:15;100411.78;;;15.43;41.42
12213;BME280;6169;44.158;22.788;2023-04-02T19:14:19;100418.09;;;15.13;42.08
12213;BME280;6169;44.158;22.788;2023-04-02T19:19:25;100413.72;;;15.37;41.61
12213;BME280;6169;44.158;22.788;2023-04-02T19:24:43;100404.25;;;16.00;40.16
12213;BME280;6169;44.158;22.788;2023-04-02T19:29:58;100416.81;;;16.11;39.19
12213;BME280;6169;44.158;22.788;2023-04-02T19:35:11;100421.03;;;16.48;38.37
12213;BME280;6169;44.158;22.788;2023-04-02T19:40:24;100419.41;;;16.47;38.69
12213;BME280;6169;44.158;22.788;2023-04-02T19:45:34;100431.84;;;16.24;39.37
12213;BME280;6169;44.158;22.788;2023-04-02T19:50:38;100438.09;;;14.83;42.60
12213;BME280;6169;44.158;22.788;2023-04-02T19:55:43;100438.91;;;15.24;41.58
12213;BME280;6169;44.158;22.788;2023-04-02T20:00:45;100452.06;;;15.27;41.50
12213;BME280;6169;44.158;22.788;2023-04-02T20:05:48;100457.81;;;15.05;41.61
12213;BME280;6169;44.158;22.788;2023-04-02T20:10:52;100452.06;;;14.97;42.05
12213;BME280;6169;44.158;22.788;2023-04-02T20:15:58;100449.81;;;14.68;43.20
12213;BME280;6169;44.158;22.788;2023-04-02T20:21:03;100445.41;;;14.62;43.33
12213;BME280;6169;44.158;22.788;2023-04-02T20:26:07;100453.09;;;14.70;42.73
12213;BME280;6169;44.158;22.788;2023-04-02T20:31:10;100447.94;;;15.35;41.50
12213;BME280;6169;44.158;22.788;2023-04-02T20:36:15;100448.50;;;15.27;42.03
12213;BME280;6169;44.158;22.788;2023-04-02T20:41:19;100437.81;;;15.10;42.03
12213;BME280;6169;44.158;22.788;2023-04-02T20:46:22;100321.41;;;14.05;43.12
12213;BME280;6169;44.158;22.788;2023-04-02T20:51:24;100432.63;;;15.59;41.17
12213;BME280;6169;44.158;22.788;2023-04-02T20:56:28;100439.72;;;15.40;41.60
12213;BME280;6169;44.158;22.788;2023-04-02T21:01:30;100437.81;;;14.74;42.61
12213;BME280;6169;44.158;22.788;2023-04-02T21:06:34;100432.56;;;14.67;42.85
12213;BME280;6169;44.158;22.788;2023-04-02T21:11:38;100441.81;;;14.56;43.41
12213;BME280;6169;44.158;22.788;2023-04-02T21:16:40;100431.53;;;14.89;42.74
12213;BME280;6169;44.158;22.788;2023-04-02T21:21:42;100428.22;;;14.72;42.95
12213;BME280;6169;44.158;22.788;2023-04-02T21:26:46;100430.31;;;14.44;43.56
12213;BME280;6169;44.158;22.788;2023-04-02T21:31:49;100426.31;;;14.87;42.53
12213;BME280;6169;44.158;22.788;2023-04-02T21:36:51;100428.94;;;14.41;43.43
12213;BME280;6169;44.158;22.788;2023-04-02T21:41:55;100429.22;;;14.45;42.57
12213;BME280;6169;44.158;22.788;2023-04-02T21:46:57;100440.97;;;14.35;42.87
12213;BME280;6169;44.158;22.788;2023-04-02T21:51:59;100445.00;;;14.22;43.42
12213;BME280;6169;44.158;22.788;2023-04-02T21:57:03;100446.72;;;14.39;43.15
12213;BME280;6169;44.158;22.788;2023-04-02T22:02:05;100446.34;;;14.15;43.97
12213;BME280;6169;44.158;22.788;2023-04-02T22:07:07;100443.50;;;14.57;43.19
12213;BME280;6169;44.158;22.788;2023-04-02T22:12:11;100299.31;;;14.27;41.71
12213;BME280;6169;44.158;22.788;2023-04-02T22:17:13;100441.66;;;15.45;40.87
12213;BME280;6169;44.158;22.788;2023-04-02T22:22:15;100440.31;;;15.17;40.88
12213;BME280;6169;44.158;22.788;2023-04-02T22:27:19;100431.50;;;15.40;41.15
12213;BME280;6169;44.158;22.788;2023-04-02T22:32:21;100432.34;;;15.10;41.85
12213;BME280;6169;44.158;22.788;2023-04-02T22:37:23;100423.59;;;15.23;40.91
12213;BME280;6169;44.158;22.788;2023-04-02T22:42:27;100429.59;;;15.10;41.64
12213;BME280;6169;44.158;22.788;2023-04-02T22:47:29;100438.94;;;15.09;42.33
12213;BME280;6169;44.158;22.788;2023-04-02T22:52:31;100445.75;;;15.42;41.04
12213;BME280;6169;44.158;22.788;2023-04-02T22:57:35;100452.06;;;15.48;40.40
12213;BME280;6169;44.158;22.788;2023-04-02T23:02:37;100446.59;;;15.22;41.01
12213;BME280;6169;44.158;22.788;2023-04-02T23:07:40;100445.50;;;15.18;41.27
12213;BME280;6169;44.158;22.788;2023-04-02T23:12:43;100440.00;;;14.82;41.82
12213;BME280;6169;44.158;22.788;2023-04-02T23:17:45;100444.38;;;14.78;42.02
12213;BME280;6169;44.158;22.788;2023-04-02T23:22:48;100450.13;;;14.87;42.12
12213;BME280;6169;44.158;22.788;2023-04-02T23:27:51;100438.19;;;14.30;43.81
12213;BME280;6169;44.158;22.788;2023-04-02T23:32:54;100443.63;;;13.30;46.33
12213;BME280;6169;44.158;22.788;2023-04-02T23:37:56;100433.06;;;14.49;43.75
12213;BME280;6169;44.158;22.788;2023-04-02T23:42:59;100421.81;;;14.45;43.71
12213;BME280;6169;44.158;22.788;2023-04-02T23:48:02;100424.09;;;14.79;42.52
12213;BME280;6169;44.158;22.788;2023-04-02T23:53:04;100415.66;;;14.81;41.76
12213;BME280;6169;44.158;22.788;2023-04-02T23:58:08;100412.81;;;13.77;43.98
